sensor_id;sensor_type;location;lat;lon;timestamp;pressure;altitude;pressure_sealevel;temperature;humidity
48792;BME280;34587;48.816;9.420;2023-03-19T00:02:02;98487.63;;;8.31;78.35
48792;BME280;34587;48.816;9.420;2023-03-19T00:04:28;98489.09;;;8.52;77.40
48792;BME280;34587;48.816;9.420;2023-03-19T00:06:53;98485.78;;;8.43;78.09
48792;BME280;34587;48.816;9.420;2023-03-19T00:09:19;98486.69;;;8.39;78.06
48792;BME280;34587;48.816;9.420;2023-03-19T00:11:46;98489.09;;;8.50;77.55
48792;BME280;34587;48.816;9.420;2023-03-19T00:14:12;98490.72;;;8.59;77.29
48792;BME280;34587;48.816;9.420;2023-03-19T00:16:37;98494.84;;;8.69;76.71
48792;BME280;34587;48.816;9.420;2023-03-19T00:19:03;98489.66;;;8.72;76.80
48792;BME280;34587;48.816;9.420;2023-03-19T00:21:29;98485.25;;;8.80;76.70
48792;BME280;34587;48.816;9.420;2023-03-19T00:23:55;98488.56;;;8.87;76.21
48792;BME280;34587;48.816;9.420;2023-03-19T00:26:25;98491.22;;;8.82;76.50
48792;BME280;34587;48.816;9.420;2023-03-19T00:28:51;98492.91;;;8.83;76.40
48792;BME280;34587;48.816;9.420;2023-03-19T00:31:16;98488.69;;;8.79;76.59
48792;BME280;34587;48.816;9.420;2023-03-19T00:33:42;98499.69;;;8.92;76.39
48792;BME280;34587;48.816;9.420;2023-03-19T00:36:08;98489.38;;;8.90;76.43
48792;BME280;34587;48.816;9.420;2023-03-19T00:38:35;98489.41;;;8.87;76.57
48792;BME280;34587;48.816;9.420;2023-03-19T00:41:01;98492.13;;;8.78;76.94
48792;BME280;34587;48.816;9.420;2023-03-19T00:43:27;98496.66;;;8.64;77.61
48792;BME280;34587;48.816;9.420;2023-03-19T00:45:53;98498.19;;;8.77;77.23
48792;BME280;34587;48.816;9.420;2023-03-19T00:48:19;98495.63;;;8.74;77.28
48792;BME280;34587;48.816;9.420;2023-03-19T00:50:46;98500.00;;;8.72;77.17
48792;BME280;34587;48.816;9.420;2023-03-19T00:53:11;98499.84;;;8.81;76.96
48792;BME280;34587;48.816;9.420;2023-03-19T00:55:36;98503.72;;;8.53;77.85
48792;BME280;34587;48.816;9.420;2023-03-19T00:58:02;98507.00;;;8.64;77.61
48792;BME280;34587;48.816;9.420;2023-03-19T05:45:12;98687.78;;;7.75;98.90
48792;BME280;34587;48.816;9.420;2023-03-19T05:47:37;98677.31;;;7.91;98.31
48792;BME280;34587;48.816;9.420;2023-03-19T05:50:04;98676.38;;;7.97;97.88
48792;BME280;34587;48.816;9.420;2023-03-19T05:52:29;98684.97;;;8.01;97.21
48792;BME280;34587;48.816;9.420;2023-03-19T05:54:55;98678.97;;;7.97;97.39
48792;BME280;34587;48.816;9.420;2023-03-19T05:57:20;98683.41;;;7.81;98.92
48792;BME280;34587;48.816;9.420;2023-03-19T05:59:46;98687.72;;;7.84;98.71
48792;BME280;34587;48.816;9.420;2023-03-19T06:02:11;98685.91;;;7.93;98.91
48792;BME280;34587;48.816;9.420;2023-03-19T06:04:36;98687.66;;;7.88;98.05
48792;BME280;34587;48.816;9.420;2023-03-19T06:07:02;98688.56;;;7.84;98.83
48792;BME280;34587;48.816;9.420;2023-03-19T06:09:28;98698.81;;;7.90;98.49
48792;BME280;34587;48.816;9.420;2023-03-19T06:11:54;98703.97;;;7.90;98.55
48792;BME280;34587;48.816;9.420;2023-03-19T06:14:19;98705.66;;;7.94;98.60
48792;BME280;34587;48.816;9.420;2023-03-19T06:16:44;98707.31;;;8.02;98.17
48792;BME280;34587;48.816;9.420;2023-03-19T06:19:10;98715.91;;;8.01;98.28
48792;BME280;34587;48.816;9.420;2023-03-19T06:21:35;98715.91;;;8.01;98.29
48792;BME280;34587;48.816;9.420;2023-03-19T06:24:01;98714.19;;;8.03;98.09
48792;BME280;34587;48.816;9.420;2023-03-19T06:26:26;98715.91;;;8.01;98.61
48792;BME280;34587;48.816;9.420;2023-03-19T06:28:52;98719.38;;;7.99;99.13
48792;BME280;34587;48.816;9.420;2023-03-19T06:31:17;98712.50;;;7.98;99.00
48792;BME280;34587;48.816;9.420;2023-03-19T06:33:43;98713.38;;;7.99;99.18
48792;BME280;34587;48.816;9.420;2023-03-19T06:36:08;98715.91;;;8.01;99.68
48792;BME280;34587;48.816;9.420;2023-03-19T06:38:34;98716.66;;;8.12;99.77
48792;BME280;34587;48.816;9.420;2023-03-19T06:41:00;98715.75;;;8.22;99.92
48792;BME280;34587;48.816;9.420;2023-03-19T06:43:26;98714.84;;;8.21;98.90
48792;BME280;34587;48.816;9.420;2023-03-19T06:45:51;98718.38;;;8.17;99.34
48792;BME280;34587;48.816;9.420;2023-03-19T06:48:16;98711.47;;;8.16;99.10
48792;BME280;34587;48.816;9.420;2023-03-19T06:50:44;98713.78;;;8.45;98.80
48792;BME280;34587;48.816;9.420;2023-03-19T06:53:10;98714.53;;;8.55;97.20
48792;BME280;34587;48.816;9.420;2023-03-19T06:55:35;98715.38;;;8.59;96.38
48792;BME280;34587;48.816;9.420;2023-03-19T06:58:01;98714.44;;;8.64;96.50
48792;BME280;34587;48.816;9.420;2023-03-19T07:00:27;98716.88;;;8.78;95.98
48792;BME280;34587;48.816;9.420;2023-03-19T07:02:52;98719.44;;;8.80;95.56
48792;BME280;34587;48.816;9.420;2023-03-19T07:05:18;98718.44;;;8.91;94.85
48792;BME280;34587;48.816;9.420;2023-03-19T07:07:43;98718.47;;;8.88;94.73
48792;BME280;34587;48.816;9.420;2023-03-19T07:10:09;98724.38;;;8.98;94.45
48792;BME280;34587;48.816;9.420;2023-03-19T07:12:35;98711.38;;;9.06;93.92
48792;BME280;34587;48.816;9.420;2023-03-19T07:15:00;98721.00;;;8.93;94.03
48792;BME280;34587;48.816;9.420;2023-03-19T07:17:25;98725.22;;;8.98;94.43
48792;BME280;34587;48.816;9.420;2023-03-19T07:19:51;98726.81;;;9.12;94.34
48792;BME280;34587;48.816;9.420;2023-03-19T07:22:16;98729.59;;;8.93;95.01
48792;BME280;34587;48.816;9.420;2023-03-19T07:24:42;98727.81;;;9.00;95.25
48792;BME280;34587;48.816;9.420;2023-03-19T07:27:07;98720.91;;;8.99;95.32
48792;BME280;34587;48.816;9.420;2023-03-19T07:29:33;98730.25;;;9.11;95.64
48792;BME280;34587;48.816;9.420;2023-03-19T07:31:58;98719.72;;;9.26;94.95
48792;BME280;34587;48.816;9.420;2023-03-19T07:34:24;98727.22;;;9.44;94.46
48792;BME280;34587;48.816;9.420;2023-03-19T07:36:49;98726.91;;;9.67;93.31
48792;BME280;34587;48.816;9.420;2023-03-19T07:39:15;98732.34;;;9.47;92.86
48792;BME280;34587;48.816;9.420;2023-03-19T07:41:40;98727.75;;;9.68;92.59
48792;BME280;34587;48.816;9.420;2023-03-19T07:44:09;98726.00;;;9.67;92.13
48792;BME280;34587;48.816;9.420;2023-03-19T07:46:34;98724.88;;;9.85;92.40
48792;BME280;34587;48.816;9.420;2023-03-19T07:48:59;98728.31;;;9.85;92.29
48792;BME280;34587;48.816;9.420;2023-03-19T07:51:25;98726.09;;;10.15;91.80
48792;BME280;34587;48.816;9.420;2023-03-19T07:53:51;98725.03;;;10.28;90.89
48792;BME280;34587;48.816;9.420;2023-03-19T07:56:16;98726.66;;;10.35;89.79
48792;BME280;34587;48.816;9.420;2023-03-19T07:58:41;98724.88;;;10.37;89.13
48792;BME280;34587;48.816;9.420;2023-03-19T08:01:07;98725.63;;;10.44;88.64
48792;BME280;34587;48.816;9.420;2023-03-19T08:03:32;98728.91;;;10.53;88.84
48792;BME280;34587;48.816;9.420;2023-03-19T08:05:57;98735.03;;;10.49;88.48
48792;BME280;34587;48.816;9.420;2023-03-19T08:08:23;98738.41;;;10.54;88.55
48792;BME280;34587;48.816;9.420;2023-03-19T08:10:48;98726.97;;;10.63;88.44
48792;BME280;34587;48.816;9.420;2023-03-19T08:13:15;98723.66;;;10.57;88.74
48792;BME280;34587;48.816;9.420;2023-03-19T08:15:40;98726.13;;;10.63;88.97
48792;BME280;34587;48.816;9.420;2023-03-19T08:18:05;98723.19;;;10.81;89.11
48792;BME280;34587;48.816;9.420;2023-03-19T08:20:32;98729.31;;;10.77;87.95
48792;BME280;34587;48.816;9.420;2023-03-19T08:22:57;98727.25;;;10.94;88.15
48792;BME280;34587;48.816;9.420;2023-03-19T08:25:23;98730.56;;;11.02;86.87
48792;BME280;34587;48.816;9.420;2023-03-19T08:27:49;98732.13;;;11.10;86.71
48792;BME280;34587;48.816;9.420;2023-03-19T08:30:15;98729.47;;;11.13;86.01
48792;BME280;34587;48.816;9.420;2023-03-19T08:32:41;98724.19;;;11.16;86.33
48792;BME280;34587;48.816;9.420;2023-03-19T08:35:09;98733.38;;;11.32;85.23
48792;BME280;34587;48.816;9.420;2023-03-19T08:37:35;98722.16;;;11.69;84.29
48792;BME280;34587;48.816;9.420;2023-03-19T08:40:00;98723.56;;;11.85;81.70
48792;BME280;34587;48.816;9.420;2023-03-19T08:42:25;98712.16;;;11.89;82.19
48792;BME280;34587;48.816;9.420;2023-03-19T08:44:51;98711.94;;;12.00;81.73
48792;BME280;34587;48.816;9.420;2023-03-19T08:47:16;98716.41;;;12.27;80.94
48792;BME280;34587;48.816;9.420;2023-03-19T08:49:41;98716.88;;;12.43;80.61
48792;BME280;34587;48.816;9.420;2023-03-19T08:52:07;98722.22;;;12.37;79.78
48792;BME280;34587;48.816;9.420;2023-03-19T08:54:32;98716.97;;;12.40;81.24
48792;BME280;34587;48.816;9.420;2023-03-19T08:56:59;98720.13;;;12.51;79.61
48792;BME280;34587;48.816;9.420;2023-03-19T08:59:25;98719.63;;;12.70;77.92
48792;BME280;34587;48.816;9.420;2023-03-19T09:01:52;98722.88;;;12.78;78.42
48792;BME280;34587;48.816;9.420;2023-03-19T09:04:21;98724.16;;;12.61;79.66
48792;BME280;34587;48.816;9.420;2023-03-19T09:06:47;98722.88;;;12.78;80.06
48792;BME280;34587;48.816;9.420;2023-03-19T09:09:17;98728.56;;;12.91;77.59
48792;BME280;34587;48.816;9.420;2023-03-19T09:11:42;98732.50;;;13.05;77.35
48792;BME280;34587;48.816;9.420;2023-03-19T09:14:08;98735.00;;;13.08;77.02
48792;BME280;34587;48.816;9.420;2023-03-19T09:16:35;98727.47;;;13.29;75.60
48792;BME280;34587;48.816;9.420;2023-03-19T09:19:00;98731.44;;;13.42;74.59
48792;BME280;34587;48.816;9.420;2023-03-19T09:21:26;98726.78;;;13.80;74.14
48792;BME280;34587;48.816;9.420;2023-03-19T09:23:51;98728.00;;;14.23;73.63
48792;BME280;34587;48.816;9.420;2023-03-19T09:26:17;98726.66;;;14.62;70.86
48792;BME280;34587;48.816;9.420;2023-03-19T09:28:42;98723.75;;;15.19;65.28
48792;BME280;34587;48.816;9.420;2023-03-19T09:31:10;98720.28;;;16.07;61.24
48792;BME280;34587;48.816;9.420;2023-03-19T09:33:36;98717.63;;;17.66;55.46
48792;BME280;34587;48.816;9.420;2023-03-19T09:36:02;98709.94;;;17.99;54.95
48792;BME280;34587;48.816;9.420;2023-03-19T09:38:27;98709.41;;;20.51;45.70
48792;BME280;34587;48.816;9.420;2023-03-19T09:44:00;98707.94;;;25.74;35.71
48792;BME280;34587;48.816;9.420;2023-03-19T09:46:32;98717.09;;;27.08;31.74
48792;BME280;34587;48.816;9.420;2023-03-19T09:49:05;98705.16;;;30.26;27.73
48792;BME280;34587;48.816;9.420;2023-03-19T09:51:42;98705.56;;;30.13;26.72
48792;BME280;34587;48.816;9.420;2023-03-19T09:54:28;98705.53;;;26.14;32.58
48792;BME280;34587;48.816;9.420;2023-03-19T09:56:55;98714.66;;;24.43;33.82
48792;BME280;34587;48.816;9.420;2023-03-19T09:59:23;98712.38;;;22.66;36.50
48792;BME280;34587;48.816;9.420;2023-03-19T10:02:00;98702.63;;;23.54;36.09
48792;BME280;34587;48.816;9.420;2023-03-19T10:04:40;98697.78;;;24.09;33.29
48792;BME280;34587;48.816;9.420;2023-03-19T10:10:03;98701.41;;;29.28;26.91
48792;BME280;34587;48.816;9.420;2023-03-19T10:15:41;98694.63;;;27.01;30.21
48792;BME280;34587;48.816;9.420;2023-03-19T10:18:16;98687.38;;;26.19;29.03
48792;BME280;34587;48.816;9.420;2023-03-19T10:20:58;98685.88;;;24.15;31.14
48792;BME280;34587;48.816;9.420;2023-03-19T10:23:49;98693.34;;;22.87;34.35
48792;BME280;34587;48.816;9.420;2023-03-19T10:26:23;98689.81;;;23.24;32.49
48792;BME280;34587;48.816;9.420;2023-03-19T10:29:06;98691.03;;;22.69;32.97
48792;BME280;34587;48.816;9.420;2023-03-19T10:34:30;98676.09;;;27.89;26.23
48792;BME280;34587;48.816;9.420;2023-03-19T10:39:34;98662.59;;;29.33;23.63
48792;BME280;34587;48.816;9.420;2023-03-19T10:44:56;98659.69;;;26.01;25.92
48792;BME280;34587;48.816;9.420;2023-03-19T10:47:25;98668.84;;;24.76;26.67
48792;BME280;34587;48.816;9.420;2023-03-19T10:49:51;98663.28;;;25.13;25.63
48792;BME280;34587;48.816;9.420;2023-03-19T10:52:21;98660.22;;;24.04;28.13
48792;BME280;34587;48.816;9.420;2023-03-19T10:54:56;98664.28;;;22.99;30.26
48792;BME280;34587;48.816;9.420;2023-03-19T10:57:27;98666.72;;;22.77;31.10
48792;BME280;34587;48.816;9.420;2023-03-19T10:59:53;98660.50;;;22.91;30.99
48792;BME280;34587;48.816;9.420;2023-03-19T11:02:21;98662.28;;;22.65;31.67
48792;BME280;34587;48.816;9.420;2023-03-19T11:04:48;98651.31;;;23.57;30.67
48792;BME280;34587;48.816;9.420;2023-03-19T11:07:20;98649.06;;;25.03;29.64
48792;BME280;34587;48.816;9.420;2023-03-19T11:09:49;98644.38;;;24.95;28.79
48792;BME280;34587;48.816;9.420;2023-03-19T11:14:51;98656.34;;;21.15;35.62
48792;BME280;34587;48.816;9.420;2023-03-19T11:17:39;98654.38;;;22.65;33.10
48792;BME280;34587;48.816;9.420;2023-03-19T11:22:36;98657.88;;;21.04;36.13
48792;BME280;34587;48.816;9.420;2023-03-19T11:25:27;98653.28;;;20.65;36.18
48792;BME280;34587;48.816;9.420;2023-03-19T11:36:12;98625.31;;;22.52;34.29
48792;BME280;34587;48.816;9.420;2023-03-19T11:44:36;98629.63;;;23.89;31.42
48792;BME280;34587;48.816;9.420;2023-03-19T11:50:18;98630.69;;;21.04;36.32
48792;BME280;34587;48.816;9.420;2023-03-19T11:55:37;98617.31;;;20.78;35.22
48792;BME280;34587;48.816;9.420;2023-03-19T12:01:05;98612.47;;;21.55;34.69
48792;BME280;34587;48.816;9.420;2023-03-19T12:04:01;98607.19;;;20.72;35.70
48792;BME280;34587;48.816;9.420;2023-03-19T12:06:35;98603.00;;;23.55;31.54
48792;BME280;34587;48.816;9.420;2023-03-19T12:09:28;98594.94;;;23.32;32.25
48792;BME280;34587;48.816;9.420;2023-03-19T12:12:18;98597.34;;;21.71;34.35
48792;BME280;34587;48.816;9.420;2023-03-19T12:17:43;98602.34;;;20.22;36.45
48792;BME280;34587;48.816;9.420;2023-03-19T12:20:34;98603.25;;;20.51;35.44
48792;BME280;34587;48.816;9.420;2023-03-19T12:26:04;98598.34;;;20.73;34.96
48792;BME280;34587;48.816;9.420;2023-03-19T12:28:57;98593.47;;;20.67;34.39
48792;BME280;34587;48.816;9.420;2023-03-19T12:32:29;98584.16;;;19.89;34.83
48792;BME280;34587;48.816;9.420;2023-03-19T12:34:47;98587.19;;;19.05;36.88
48792;BME280;34587;48.816;9.420;2023-03-19T12:37:27;98590.56;;;18.91;37.28
48792;BME280;34587;48.816;9.420;2023-03-19T12:40:16;98583.78;;;19.03;37.28
48792;BME280;34587;48.816;9.420;2023-03-19T12:42:46;98587.69;;;19.58;36.93
48792;BME280;34587;48.816;9.420;2023-03-19T12:45:34;98591.41;;;18.43;38.16
48792;BME280;34587;48.816;9.420;2023-03-19T12:48:20;98582.38;;;18.64;38.11
48792;BME280;34587;48.816;9.420;2023-03-19T12:50:50;98587.31;;;18.04;38.78
48792;BME280;34587;48.816;9.420;2023-03-19T12:56:15;98579.72;;;18.33;39.25
48792;BME280;34587;48.816;9.420;2023-03-19T12:58:50;98581.19;;;18.54;38.08
48792;BME280;34587;48.816;9.420;2023-03-19T13:01:20;98579.41;;;19.49;37.22
48792;BME280;34587;48.816;9.420;2023-03-19T13:06:36;98580.66;;;20.18;36.66
48792;BME280;34587;48.816;9.420;2023-03-19T13:09:19;98575.00;;;20.10;35.29
48792;BME280;34587;48.816;9.420;2023-03-19T13:19:47;98565.59;;;18.51;38.34
48792;BME280;34587;48.816;9.420;2023-03-19T13:22:21;98581.75;;;18.10;39.89
48792;BME280;34587;48.816;9.420;2023-03-19T13:24:48;98579.59;;;18.18;39.45
48792;BME280;34587;48.816;9.420;2023-03-19T13:27:21;98565.19;;;18.43;39.02
48792;BME280;34587;48.816;9.420;2023-03-19T13:32:39;98577.22;;;17.79;42.19
48792;BME280;34587;48.816;9.420;2023-03-19T13:35:21;98587.03;;;16.84;46.00
48792;BME280;34587;48.816;9.420;2023-03-19T13:37:58;98581.41;;;16.54;46.52
48792;BME280;34587;48.816;9.420;2023-03-19T13:43:38;98604.41;;;15.66;49.64
48792;BME280;34587;48.816;9.420;2023-03-19T13:49:07;98624.78;;;14.67;54.80
48792;BME280;34587;48.816;9.420;2023-03-19T13:51:34;98619.16;;;14.78;56.36
48792;BME280;34587;48.816;9.420;2023-03-19T13:56:26;98629.16;;;14.17;59.52
48792;BME280;34587;48.816;9.420;2023-03-19T14:01:42;98625.19;;;14.06;61.11
48792;BME280;34587;48.816;9.420;2023-03-19T14:04:23;98613.19;;;14.02;60.25
48792;BME280;34587;48.816;9.420;2023-03-19T14:06:56;98605.19;;;14.32;59.67
48792;BME280;34587;48.816;9.420;2023-03-19T14:09:44;98596.72;;;14.74;56.45
48792;BME280;34587;48.816;9.420;2023-03-19T14:17:35;98587.53;;;15.31;51.46
48792;BME280;34587;48.816;9.420;2023-03-19T14:20:32;98588.19;;;15.58;51.61
48792;BME280;34587;48.816;9.420;2023-03-19T14:23:22;98586.38;;;15.80;50.33
48792;BME280;34587;48.816;9.420;2023-03-19T14:25:58;98585.53;;;16.00;50.45
48792;BME280;34587;48.816;9.420;2023-03-19T14:36:49;98606.22;;;15.20;54.56
48792;BME280;34587;48.816;9.420;2023-03-19T14:39:27;98594.22;;;14.94;57.13
48792;BME280;34587;48.816;9.420;2023-03-19T14:42:21;98601.00;;;15.42;54.61
48792;BME280;34587;48.816;9.420;2023-03-19T14:47:49;98586.06;;;15.88;52.69
48792;BME280;34587;48.816;9.420;2023-03-19T14:50:34;98578.56;;;16.40;50.68
48792;BME280;34587;48.816;9.420;2023-03-19T14:55:34;98592.66;;;16.56;47.91
48792;BME280;34587;48.816;9.420;2023-03-19T14:58:00;98593.31;;;16.22;54.63
48792;BME280;34587;48.816;9.420;2023-03-19T15:00:26;98583.56;;;15.85;55.89
48792;BME280;34587;48.816;9.420;2023-03-19T15:02:52;98593.09;;;15.65;56.49
48792;BME280;34587;48.816;9.420;2023-03-19T15:05:21;98589.09;;;15.35;55.42
48792;BME280;34587;48.816;9.420;2023-03-19T15:07:49;98587.13;;;15.20;55.37
48792;BME280;34587;48.816;9.420;2023-03-19T15:10:20;98596.53;;;15.24;53.84
48792;BME280;34587;48.816;9.420;2023-03-19T15:13:07;98599.28;;;14.97;55.13
48792;BME280;34587;48.816;9.420;2023-03-19T15:15:42;98596.94;;;14.91;56.28
48792;BME280;34587;48.816;9.420;2023-03-19T15:18:15;98604.66;;;14.71;56.08
48792;BME280;34587;48.816;9.420;2023-03-19T15:20:46;98605.81;;;15.09;55.74
48792;BME280;34587;48.816;9.420;2023-03-19T15:23:17;98619.22;;;14.53;56.93
48792;BME280;34587;48.816;9.420;2023-03-19T15:25:48;98615.88;;;14.73;56.94
48792;BME280;34587;48.816;9.420;2023-03-19T15:28:15;98621.50;;;14.85;56.01
48792;BME280;34587;48.816;9.420;2023-03-19T15:30:40;98627.00;;;14.78;56.75
48792;BME280;34587;48.816;9.420;2023-03-19T15:33:36;98638.38;;;14.27;58.12
48792;BME280;34587;48.816;9.420;2023-03-19T15:36:16;98636.47;;;14.32;57.98
48792;BME280;34587;48.816;9.420;2023-03-19T15:41:25;98628.31;;;13.91;61.22
48792;BME280;34587;48.816;9.420;2023-03-19T15:43:52;98631.84;;;13.63;62.99
48792;BME280;34587;48.816;9.420;2023-03-19T15:46:23;98635.56;;;13.83;63.22
48792;BME280;34587;48.816;9.420;2023-03-19T15:48:50;98634.34;;;13.93;63.50
48792;BME280;34587;48.816;9.420;2023-03-19T15:51:19;98642.00;;;13.98;63.02
48792;BME280;34587;48.816;9.420;2023-03-19T15:53:45;98642.38;;;14.12;63.31
48792;BME280;34587;48.816;9.420;2023-03-19T15:56:13;98649.75;;;14.24;62.63
48792;BME280;34587;48.816;9.420;2023-03-19T15:58:44;98637.94;;;14.39;61.42
48792;BME280;34587;48.816;9.420;2023-03-19T16:01:11;98646.44;;;14.44;61.73
48792;BME280;34587;48.816;9.420;2023-03-19T16:03:49;98647.78;;;14.31;62.15
48792;BME280;34587;48.816;9.420;2023-03-19T16:08:48;98650.13;;;14.13;62.12
48792;BME280;34587;48.816;9.420;2023-03-19T16:11:33;98660.63;;;14.12;62.72
48792;BME280;34587;48.816;9.420;2023-03-19T16:14:01;98669.38;;;14.09;62.42
48792;BME280;34587;48.816;9.420;2023-03-19T16:16:33;98669.47;;;14.06;62.31
48792;BME280;34587;48.816;9.420;2023-03-19T16:18:59;98680.00;;;13.77;60.76
48792;BME280;34587;48.816;9.420;2023-03-19T16:21:36;98677.28;;;13.53;61.32
48792;BME280;34587;48.816;9.420;2023-03-19T16:24:12;98682.31;;;13.59;60.54
48792;BME280;34587;48.816;9.420;2023-03-19T16:26:40;98694.22;;;13.38;61.30
48792;BME280;34587;48.816;9.420;2023-03-19T16:31:50;98701.56;;;13.26;65.30
48792;BME280;34587;48.816;9.420;2023-03-19T16:34:30;98702.28;;;13.31;65.45
48792;BME280;34587;48.816;9.420;2023-03-19T16:36:59;98711.59;;;13.08;66.43
48792;BME280;34587;48.816;9.420;2023-03-19T16:39:32;98719.78;;;12.95;67.02
48792;BME280;34587;48.816;9.420;2023-03-19T16:44:41;98722.94;;;12.75;68.04
48792;BME280;34587;48.816;9.420;2023-03-19T16:47:13;98731.63;;;12.74;67.19
48792;BME280;34587;48.816;9.420;2023-03-19T16:49:39;98741.97;;;12.77;67.22
48792;BME280;34587;48.816;9.420;2023-03-19T16:52:05;98740.25;;;12.76;67.53
48792;BME280;34587;48.816;9.420;2023-03-19T16:54:30;98747.91;;;12.82;67.95
48792;BME280;34587;48.816;9.420;2023-03-19T16:56:56;98752.94;;;12.55;70.33
48792;BME280;34587;48.816;9.420;2023-03-19T16:59:27;98753.72;;;12.59;70.32
48792;BME280;34587;48.816;9.420;2023-03-19T17:01:53;98760.47;;;12.32;71.74
48792;BME280;34587;48.816;9.420;2023-03-19T17:04:18;98766.13;;;12.14;72.29
48792;BME280;34587;48.816;9.420;2023-03-19T17:06:43;98768.22;;;11.99;73.58
48792;BME280;34587;48.816;9.420;2023-03-19T17:09:09;98774.56;;;11.86;75.88
48792;BME280;34587;48.816;9.420;2023-03-19T17:11:37;98781.03;;;11.67;77.68
48792;BME280;34587;48.816;9.420;2023-03-19T17:14:04;98782.00;;;11.63;78.97
48792;BME280;34587;48.816;9.420;2023-03-19T17:16:31;98785.84;;;11.45;80.27
48792;BME280;34587;48.816;9.420;2023-03-19T17:18:57;98786.97;;;11.33;81.65
48792;BME280;34587;48.816;9.420;2023-03-19T17:21:27;98790.72;;;11.17;84.55
48792;BME280;34587;48.816;9.420;2023-03-19T17:23:55;98801.22;;;11.12;85.98
48792;BME280;34587;48.816;9.420;2023-03-19T17:26:23;98812.72;;;10.99;87.83
48792;BME280;34587;48.816;9.420;2023-03-19T17:28:50;98815.59;;;10.82;89.53
48792;BME280;34587;48.816;9.420;2023-03-19T17:31:30;98817.34;;;10.83;90.58
48792;BME280;34587;48.816;9.420;2023-03-19T17:34:04;98811.63;;;10.63;93.13
48792;BME280;34587;48.816;9.420;2023-03-19T17:36:31;98805.78;;;10.51;94.91
48792;BME280;34587;48.816;9.420;2023-03-19T17:38:56;98806.88;;;10.40;97.28
48792;BME280;34587;48.816;9.420;2023-03-19T17:41:22;98807.81;;;10.34;97.92
48792;BME280;34587;48.816;9.420;2023-03-19T17:43:47;98814.56;;;10.44;98.70
48792;BME280;34587;48.816;9.420;2023-03-19T17:46:19;98807.75;;;10.37;98.06
48792;BME280;34587;48.816;9.420;2023-03-19T17:48:46;98807.94;;;10.25;95.80
48792;BME280;34587;48.816;9.420;2023-03-19T17:51:12;98812.47;;;10.12;95.26
48792;BME280;34587;48.816;9.420;2023-03-19T17:53:39;98814.91;;;10.20;98.89
48792;BME280;34587;48.816;9.420;2023-03-19T17:56:05;98807.88;;;10.31;97.18
48792;BME280;34587;48.816;9.420;2023-03-19T17:58:30;98813.16;;;10.22;96.17
48792;BME280;34587;48.816;9.420;2023-03-19T18:00:56;98818.31;;;10.26;98.02
48792;BME280;34587;48.816;9.420;2023-03-19T18:03:24;98831.50;;;10.08;98.73
48792;BME280;34587;48.816;9.420;2023-03-19T18:05:51;98835.06;;;9.99;99.00
48792;BME280;34587;48.816;9.420;2023-03-19T18:08:18;98836.72;;;10.05;99.25
48792;BME280;34587;48.816;9.420;2023-03-19T18:10:44;98846.28;;;10.01;99.28
48792;BME280;34587;48.816;9.420;2023-03-19T18:13:09;98850.63;;;9.98;99.32
48792;BME280;34587;48.816;9.420;2023-03-19T18:15:37;98857.59;;;9.94;100.00
48792;BME280;34587;48.816;9.420;2023-03-19T18:18:04;98866.06;;;10.04;100.00
48792;BME280;34587;48.816;9.420;2023-03-19T18:20:36;98878.25;;;9.97;100.00
48792;BME280;34587;48.816;9.420;2023-03-19T18:23:02;98880.94;;;9.91;100.00
48792;BME280;34587;48.816;9.420;2023-03-19T18:25:28;98876.66;;;9.89;100.00
48792;BME280;34587;48.816;9.420;2023-03-19T18:27:55;98878.38;;;9.88;100.00
48792;BME280;34587;48.816;9.420;2023-03-19T18:30:22;98867.28;;;9.80;100.00
48792;BME280;34587;48.816;9.420;2023-03-19T18:32:50;98869.72;;;9.89;100.00
48792;BME280;34587;48.816;9.420;2023-03-19T18:35:19;98867.31;;;9.77;100.00
48792;BME280;34587;48.816;9.420;2023-03-19T18:37:47;98872.09;;;10.04;100.00
48792;BME280;34587;48.816;9.420;2023-03-19T18:40:14;98868.91;;;9.87;100.00
48792;BME280;34587;48.816;9.420;2023-03-19T18:42:39;98870.63;;;9.88;100.00
48792;BME280;34587;48.816;9.420;2023-03-19T18:45:05;98875.81;;;9.85;100.00
48792;BME280;34587;48.816;9.420;2023-03-19T18:47:31;98870.75;;;9.79;100.00
48792;BME280;34587;48.816;9.420;2023-03-19T18:49:56;98874.25;;;9.75;100.00
48792;BME280;34587;48.816;9.420;2023-03-19T18:52:23;98880.19;;;9.83;100.00
48792;BME280;34587;48.816;9.420;2023-03-19T18:54:48;98872.44;;;9.82;100.00
48792;BME280;34587;48.816;9.420;2023-03-19T18:57:14;98877.63;;;9.80;100.00
48792;BME280;34587;48.816;9.420;2023-03-19T18:59:40;98875.22;;;9.66;100.00
48792;BME280;34587;48.816;9.420;2023-03-19T19:02:30;98880.25;;;9.78;100.00
48792;BME280;34587;48.816;9.420;2023-03-19T19:04:56;98882.13;;;9.67;100.00
48792;BME280;34587;48.816;9.420;2023-03-19T19:07:22;98877.78;;;9.68;100.00
48792;BME280;34587;48.816;9.420;2023-03-19T19:09:47;98886.47;;;9.64;100.00
48792;BME280;34587;48.816;9.420;2023-03-19T19:12:14;98883.97;;;9.58;100.00
48792;BME280;34587;48.816;9.420;2023-03-19T19:14:41;98880.56;;;9.51;100.00
48792;BME280;34587;48.816;9.420;2023-03-19T19:17:19;98884.81;;;9.57;100.00
48792;BME280;34587;48.816;9.420;2023-03-19T19:19:48;98881.38;;;9.58;100.00
48792;BME280;34587;48.816;9.420;2023-03-19T19:22:15;98890.03;;;9.53;100.00
48792;BME280;34587;48.816;9.420;2023-03-19T19:24:41;98896.94;;;9.51;100.00
48792;BME280;34587;48.816;9.420;2023-03-19T19:27:13;98893.44;;;9.56;100.00
48792;BME280;34587;48.816;9.420;2023-03-19T19:29:39;98902.09;;;9.55;100.00
48792;BME280;34587;48.816;9.420;2023-03-19T19:32:08;98907.09;;;9.67;100.00
48792;BME280;34587;48.816;9.420;2023-03-19T19:34:38;98897.69;;;9.61;100.00
48792;BME280;34587;48.816;9.420;2023-03-19T19:37:04;98911.47;;;9.62;100.00
48792;BME280;34587;48.816;9.420;2023-03-19T19:39:29;98903.78;;;9.59;100.00
48792;BME280;34587;48.816;9.420;2023-03-19T19:41:54;98914.06;;;9.62;100.00
48792;BME280;34587;48.816;9.420;2023-03-19T19:44:21;98915.00;;;9.56;100.00
48792;BME280;34587;48.816;9.420;2023-03-19T19:46:46;98921.97;;;9.49;100.00
48792;BME280;34587;48.816;9.420;2023-03-19T19:49:13;98926.34;;;9.44;100.00